Time;durP1;ratioP1;P1;durP2;ratioP2;P2;SDS_P1;SDS_P2;PMS_P1;PMS_P2;Temp;Humidity;BMP_temperature;BMP_pressure;BME280_temperature;BME280_humidity;BME280_pressure;Samples;Min_cycle;Max_cycle;Signal;HPM_P1;HPM_P2
2022/12/21 00:01:30;;;;;;;31.67;21.20;;;5.50;99.90;;;;;;5076443;28;20510;-70
2022/12/21 00:03:58;;;;;;;36.77;21.70;;;5.40;99.90;;;;;;5049606;28;20501;-70
2022/12/21 00:06:26;;;;;;;33.10;21.40;;;5.50;99.90;;;;;;5055716;28;20469;-68
2022/12/21 00:08:54;;;;;;;34.83;21.30;;;5.50;99.90;;;;;;5052924;28;20470;-70
2022/12/21 00:11:22;;;;;;;35.80;20.90;;;5.50;99.90;;;;;;5065743;28;20461;-70
2022/12/21 00:13:48;;;;;;;29.13;20.20;;;5.50;99.90;;;;;;5059544;28;20450;-71
2022/12/21 00:16:16;;;;;;;29.37;19.10;;;5.50;99.90;;;;;;5062005;28;20461;-70
2022/12/21 00:18:42;;;;;;;34.60;21.33;;;5.50;99.90;;;;;;5062383;28;20451;-71
2022/12/21 00:21:14;;;;;;;33.77;21.47;;;5.50;99.90;;;;;;5067097;28;20499;-70
2022/12/21 00:23:45;;;;;;;30.40;20.77;;;5.50;99.90;;;;;;5049778;28;20974;-70
2022/12/21 00:26:12;;;;;;;31.90;21.30;;;5.50;99.90;;;;;;5064373;28;20490;-71
2022/12/21 00:28:38;;;;;;;41.77;23.10;;;5.50;99.90;;;;;;5092139;28;20447;-71
2022/12/21 00:31:10;;;;;;;37.43;22.00;;;5.50;99.90;;;;;;5060168;28;20480;-70
2022/12/21 00:33:37;;;;;;;37.23;22.70;;;5.50;99.90;;;;;;5084034;28;20460;-70
2022/12/21 00:36:04;;;;;;;37.90;21.13;;;5.50;99.90;;;;;;5052197;28;20524;-69
2022/12/21 00:38:31;;;;;;;33.63;22.97;;;5.50;99.90;;;;;;5068101;28;20468;-70
2022/12/21 00:41:02;;;;;;;35.40;22.60;;;5.50;99.90;;;;;;5068564;28;20448;-69
2022/12/21 00:43:29;;;;;;;43.53;23.17;;;5.50;99.90;;;;;;5056166;28;20460;-70
2022/12/21 00:45:55;;;;;;;37.47;24.80;;;5.50;99.90;;;;;;5077762;28;20461;-70
2022/12/21 00:48:21;;;;;;;37.30;24.10;;;5.60;99.90;;;;;;5064987;28;20479;-70
2022/12/21 00:50:47;;;;;;;36.73;22.77;;;5.60;99.90;;;;;;5035192;28;20276;-70
2022/12/21 00:53:15;;;;;;;40.03;24.00;;;5.60;99.90;;;;;;5048942;28;20233;-70
2022/12/21 00:55:41;;;;;;;36.37;21.70;;;5.60;99.90;;;;;;5067514;28;20471;-70
2022/12/21 00:58:07;;;;;;;40.37;22.97;;;5.60;99.90;;;;;;5059120;28;20484;-70
2022/12/21 01:00:33;;;;;;;29.40;22.13;;;5.60;99.90;;;;;;5054486;28;20974;-69
2022/12/21 01:02:59;;;;;;;42.70;22.80;;;5.60;99.90;;;;;;5073804;28;20202;-70
2022/12/21 01:05:27;;;;;;;29.63;19.53;;;5.60;99.90;;;;;;5059204;28;20525;-70
2022/12/21 01:07:52;;;;;;;33.00;22.03;;;5.60;99.90;;;;;;5056133;28;20215;-70
2022/12/21 01:10:18;;;;;;;36.17;21.30;;;5.60;99.90;;;;;;5074866;28;20536;-70
2022/12/21 01:12:44;;;;;;;29.73;20.00;;;5.60;99.90;;;;;;5071875;28;20202;-70
2022/12/21 01:15:10;;;;;;;33.03;20.33;;;5.60;99.90;;;;;;5059921;28;20469;-70
2022/12/21 01:17:35;;;;;;;38.10;21.97;;;5.60;99.90;;;;;;5068801;28;20222;-71
2022/12/21 01:20:01;;;;;;;34.87;21.10;;;5.60;99.90;;;;;;5063269;28;20715;-70
2022/12/21 01:22:27;;;;;;;30.57;21.03;;;5.60;99.90;;;;;;5087905;28;20585;-70
2022/12/21 01:24:52;;;;;;;37.60;22.33;;;5.60;99.90;;;;;;5066434;28;20213;-71
2022/12/21 01:27:19;;;;;;;32.07;20.70;;;5.60;99.90;;;;;;5073958;28;20265;-70
2022/12/21 01:29:45;;;;;;;31.67;20.53;;;5.70;99.90;;;;;;5072915;28;20454;-71
2022/12/21 01:32:10;;;;;;;35.17;21.03;;;5.70;99.90;;;;;;5060806;28;20245;-70
2022/12/21 01:34:36;;;;;;;30.17;19.73;;;5.70;99.90;;;;;;5073657;28;20232;-70
2022/12/21 01:37:02;;;;;;;31.53;19.70;;;5.70;99.90;;;;;;5054976;28;20281;-70
2022/12/21 01:39:29;;;;;;;31.00;19.93;;;5.70;99.90;;;;;;5054327;28;20214;-71
2022/12/21 01:41:55;;;;;;;30.37;18.73;;;5.70;99.90;;;;;;5069364;28;20253;-70
2022/12/21 01:45:00;;;;;;;36.70;21.73;;;5.70;99.90;;;;;;5057442;28;20493;-70
2022/12/21 01:47:35;;;;;;;27.50;18.93;;;5.70;99.90;;;;;;5084282;28;20604;-69
2022/12/21 01:50:21;;;;;;;35.50;20.90;;;5.70;99.90;;;;;;5057633;28;20456;-70
2022/12/21 01:52:48;;;;;;;30.20;19.27;;;5.70;99.90;;;;;;5059176;28;20543;-70
2022/12/21 01:55:14;;;;;;;31.77;19.70;;;5.70;99.90;;;;;;5069618;28;20965;-70
2022/12/21 01:57:40;;;;;;;30.93;19.70;;;5.70;99.90;;;;;;5079848;28;20569;-70
2022/12/21 02:00:08;;;;;;;31.10;19.30;;;5.70;99.90;;;;;;5074148;28;20511;-70
2022/12/21 02:02:53;;;;;;;35.17;20.37;;;5.70;99.90;;;;;;5075319;28;20452;-71
2022/12/21 02:05:19;;;;;;;30.47;19.30;;;5.80;99.90;;;;;;5051615;28;20529;-70
2022/12/21 02:07:45;;;;;;;33.23;19.83;;;5.80;99.90;;;;;;5065163;28;20474;-70
2022/12/21 02:10:11;;;;;;;30.37;18.87;;;5.70;99.90;;;;;;5064187;28;20206;-71
2022/12/21 02:12:40;;;;;;;29.30;19.53;;;5.80;99.90;;;;;;5072854;28;20452;-70
2022/12/21 02:15:06;;;;;;;27.60;17.37;;;5.80;99.90;;;;;;5065435;28;20452;-71
2022/12/21 02:17:41;;;;;;;30.53;19.77;;;5.80;99.90;;;;;;5057148;28;20449;-70
2022/12/21 02:20:15;;;;;;;31.63;20.50;;;5.80;99.90;;;;;;5057747;28;20440;-71
2022/12/21 02:23:26;;;;;;;25.53;17.70;;;5.80;99.90;;;;;;5084203;28;20455;-71
2022/12/21 02:26:09;;;;;;;28.40;17.50;;;5.80;99.90;;;;;;5070556;28;20576;-71
2022/12/21 02:29:05;;;;;;;28.53;17.33;;;5.80;99.90;;;;;;5074133;28;20989;-70
2022/12/21 02:31:53;;;;;;;21.07;16.13;;;5.80;99.90;;;;;;5057852;28;20452;-70
2022/12/21 02:34:38;;;;;;;25.77;16.77;;;5.80;99.90;;;;;;5059717;28;20444;-71
2022/12/21 02:37:20;;;;;;;25.23;16.67;;;5.80;99.90;;;;;;5072208;28;20444;-70
2022/12/21 02:40:07;;;;;;;27.47;15.60;;;5.90;99.90;;;;;;5044651;28;20778;-71
2022/12/21 02:45:50;;;;;;;22.63;14.93;;;5.90;99.90;;;;;;5064216;28;20469;-70
2022/12/21 02:48:34;;;;;;;25.03;13.80;;;5.90;99.90;;;;;;5056654;28;20980;-70
2022/12/21 02:51:02;;;;;;;25.00;15.77;;;5.90;99.90;;;;;;5073575;28;20450;-70
2022/12/21 02:53:34;;;;;;;27.10;15.27;;;5.90;99.90;;;;;;5057662;28;20552;-70
2022/12/21 02:56:00;;;;;;;23.63;16.47;;;5.90;99.90;;;;;;5065129;28;20813;-70
2022/12/21 02:58:25;;;;;;;26.00;15.80;;;5.90;99.90;;;;;;5072570;28;20600;-71
2022/12/21 03:00:51;;;;;;;21.67;13.23;;;5.90;99.90;;;;;;5064114;28;20202;-71
2022/12/21 03:03:48;;;;;;;22.47;15.37;;;5.90;99.90;;;;;;5069661;28;20544;-71
2022/12/21 03:06:38;;;;;;;24.13;14.43;;;5.90;99.90;;;;;;5056842;28;20547;-71
2022/12/21 03:09:03;;;;;;;23.03;13.60;;;5.90;99.90;;;;;;5085313;28;20511;-71
2022/12/21 03:11:51;;;;;;;27.93;17.20;;;6.00;99.90;;;;;;5067206;28;20450;-70
2022/12/21 03:14:45;;;;;;;20.70;15.33;;;6.00;99.90;;;;;;5052678;28;20452;-71
2022/12/21 03:17:29;;;;;;;24.50;15.33;;;6.00;99.90;;;;;;5052826;28;20442;-71
2022/12/21 03:20:12;;;;;;;27.10;18.20;;;6.00;99.90;;;;;;5037452;28;21121;-70
2022/12/21 03:22:47;;;;;;;25.87;17.60;;;6.00;99.90;;;;;;5055367;28;20449;-70
2022/12/21 03:25:22;;;;;;;28.13;16.23;;;6.00;99.90;;;;;;5069434;28;20448;-71
2022/12/21 03:27:52;;;;;;;29.97;19.97;;;6.00;99.90;;;;;;5071015;28;20460;-71
2022/12/21 03:30:19;;;;;;;23.37;16.87;;;6.00;99.90;;;;;;5063559;28;20535;-70
2022/12/21 03:33:00;;;;;;;26.40;17.67;;;6.00;99.90;;;;;;5053927;28;20952;-70
2022/12/21 03:36:07;;;;;;;28.30;18.37;;;6.00;99.90;;;;;;5053178;28;20449;-70
2022/12/21 03:38:35;;;;;;;27.90;17.87;;;6.00;99.90;;;;;;4931832;28;20450;-70
2022/12/21 03:41:08;;;;;;;27.77;17.13;;;6.00;99.90;;;;;;4941695;28;20451;-70
2022/12/21 03:43:35;;;;;;;24.50;16.97;;;6.00;99.90;;;;;;5017458;28;20528;-71
2022/12/21 03:46:06;;;;;;;24.27;14.93;;;6.00;99.90;;;;;;5072432;28;20853;-71
2022/12/21 03:48:52;;;;;;;25.77;16.83;;;6.00;99.90;;;;;;5072667;28;20825;-71
2022/12/21 03:51:35;;;;;;;19.60;15.70;;;6.00;99.90;;;;;;5099986;28;20532;-71
2022/12/21 03:54:18;;;;;;;24.70;15.53;;;6.00;99.90;;;;;;5054566;28;20951;-71
2022/12/21 03:56:44;;;;;;;24.23;14.80;;;6.00;99.90;;;;;;5069681;28;20968;-71
2022/12/21 03:59:13;;;;;;;26.80;14.80;;;6.00;99.90;;;;;;5063388;28;20447;-70
2022/12/21 04:02:03;;;;;;;23.10;15.00;;;6.10;99.90;;;;;;5061992;28;20209;-70
2022/12/21 04:04:58;;;;;;;22.03;14.73;;;6.10;99.90;;;;;;5090848;28;20454;-71
2022/12/21 04:07:26;;;;;;;20.00;13.80;;;6.10;99.90;;;;;;5076052;28;20464;-71
2022/12/21 04:10:00;;;;;;;18.50;14.57;;;6.10;99.90;;;;;;5088449;28;20452;-71
2022/12/21 04:12:36;;;;;;;23.57;15.23;;;6.10;99.90;;;;;;5072931;28;20472;-70
2022/12/21 04:15:11;;;;;;;21.20;14.10;;;6.10;99.90;;;;;;5064294;28;20480;-72
2022/12/21 04:17:38;;;;;;;24.40;15.30;;;6.10;99.90;;;;;;5071364;28;20513;-70
2022/12/21 04:20:07;;;;;;;25.30;15.90;;;6.10;99.90;;;;;;5080604;28;20526;-72
2022/12/21 04:28:14;;;;;;;23.10;15.13;;;6.10;99.90;;;;;;5057234;28;20436;-71
2022/12/21 04:30:44;;;;;;;23.50;15.87;;;6.20;99.90;;;;;;5093970;28;20974;-69
2022/12/21 04:33:14;;;;;;;25.33;17.10;;;6.20;99.90;;;;;;5059764;28;20433;-70
2022/12/21 04:38:26;;;;;;;24.90;16.97;;;6.20;99.90;;;;;;5084305;28;20498;-71
2022/12/21 04:40:53;;;;;;;27.73;18.17;;;6.20;99.90;;;;;;5075435;28;20452;-70
2022/12/21 04:43:19;;;;;;;27.23;18.10;;;6.20;99.90;;;;;;5087272;28;20455;-70
2022/12/21 04:45:44;;;;;;;32.03;18.77;;;6.20;99.90;;;;;;5103651;28;20465;-71
2022/12/21 04:48:10;;;;;;;39.47;23.00;;;6.20;99.90;;;;;;5054801;28;20895;-70
2022/12/21 04:50:38;;;;;;;35.80;21.40;;;6.20;99.90;;;;;;5071331;28;20222;-70
2022/12/21 04:53:04;;;;;;;29.67;19.30;;;6.20;99.90;;;;;;5089918;28;20310;-70
2022/12/21 04:55:30;;;;;;;30.77;20.03;;;6.20;99.90;;;;;;5081123;28;20536;-70
2022/12/21 04:57:55;;;;;;;20.63;14.10;;;6.30;99.90;;;;;;5098996;28;20242;-70
2022/12/21 05:00:21;;;;;;;12.13;8.83;;;6.30;99.90;;;;;;5101274;28;20343;-71
2022/12/21 05:02:47;;;;;;;10.67;7.00;;;6.40;99.90;;;;;;5074299;28;20224;-71
2022/12/21 05:05:12;;;;;;;8.00;6.60;;;6.60;99.90;;;;;;5082449;28;20236;-70
2022/12/21 05:07:38;;;;;;;7.37;5.37;;;6.60;99.90;;;;;;5108132;28;20234;-70
2022/12/21 05:10:04;;;;;;;5.23;4.53;;;6.80;99.90;;;;;;5049846;28;20218;-70
2022/12/21 05:12:30;;;;;;;5.10;4.23;;;6.90;99.90;;;;;;5094816;28;20214;-70
2022/12/21 05:14:55;;;;;;;5.03;3.90;;;6.90;99.90;;;;;;5099590;28;20447;-71
2022/12/21 05:17:21;;;;;;;4.80;3.97;;;7.00;99.90;;;;;;5076527;28;20232;-70
2022/12/21 05:19:47;;;;;;;4.10;3.70;;;7.00;99.90;;;;;;5070323;28;20233;-71
2022/12/21 05:22:16;;;;;;;5.40;3.50;;;7.20;99.90;;;;;;5037108;28;20211;-70
2022/12/21 05:24:43;;;;;;;3.80;3.30;;;7.20;99.90;;;;;;5061351;28;20225;-70
2022/12/21 05:27:09;;;;;;;4.10;3.20;;;7.30;99.90;;;;;;5074923;28;20466;-70
2022/12/21 05:29:35;;;;;;;2.80;2.50;;;7.30;99.90;;;;;;5060264;28;21010;-70
2022/12/21 05:32:00;;;;;;;3.93;2.80;;;7.40;99.90;;;;;;5087171;28;20449;-69
2022/12/21 05:34:26;;;;;;;2.43;2.33;;;7.40;99.90;;;;;;5064947;28;20245;-70
2022/12/21 05:36:52;;;;;;;5.70;2.93;;;7.60;99.90;;;;;;5079656;28;20233;-71
2022/12/21 05:39:17;;;;;;;5.30;3.00;;;7.60;99.90;;;;;;5052095;28;20242;-71
2022/12/21 05:41:43;;;;;;;2.93;2.70;;;7.60;99.90;;;;;;5079623;28;20221;-71
2022/12/21 05:44:09;;;;;;;3.47;2.70;;;7.60;99.90;;;;;;5071361;28;20275;-71
2022/12/21 05:46:35;;;;;;;3.90;3.23;;;7.60;99.90;;;;;;5093166;28;20229;-70
2022/12/21 05:49:01;;;;;;;5.90;4.47;;;7.50;99.90;;;;;;5073017;28;20467;-70
2022/12/21 05:51:27;;;;;;;5.60;3.97;;;7.50;99.90;;;;;;5075849;28;20972;-71
2022/12/21 05:53:53;;;;;;;21.20;8.87;;;7.40;99.90;;;;;;5084507;28;20462;-71
2022/12/21 05:56:19;;;;;;;22.50;13.10;;;7.30;99.90;;;;;;5113347;28;20214;-71
2022/12/21 05:58:45;;;;;;;25.43;16.23;;;7.20;99.90;;;;;;5085417;28;20225;-71
2022/12/21 06:01:12;;;;;;;26.03;15.70;;;7.20;99.90;;;;;;5048194;28;20445;-70
2022/12/21 06:03:39;;;;;;;24.20;14.97;;;7.20;99.90;;;;;;5077416;28;20452;-68
2022/12/21 06:06:11;;;;;;;26.47;15.00;;;7.20;99.90;;;;;;5095278;28;20459;-71
2022/12/21 06:08:37;;;;;;;25.40;16.53;;;7.20;99.90;;;;;;5074596;28;20459;-71
2022/12/21 06:11:14;;;;;;;22.80;14.40;;;7.10;99.90;;;;;;5050717;28;20455;-71
2022/12/21 06:13:40;;;;;;;21.40;14.67;;;7.20;99.90;;;;;;5067242;28;20741;-69
2022/12/21 06:16:13;;;;;;;18.47;12.90;;;7.20;99.90;;;;;;5074452;28;20960;-71
2022/12/21 06:18:39;;;;;;;20.33;14.23;;;7.20;99.90;;;;;;5056622;28;20459;-69
2022/12/21 06:21:06;;;;;;;22.30;14.07;;;7.10;99.90;;;;;;5049034;28;20540;-69
2022/12/21 06:23:32;;;;;;;17.90;13.20;;;7.20;99.90;;;;;;5071400;28;20465;-69
2022/12/21 06:26:00;;;;;;;17.90;13.67;;;7.10;99.90;;;;;;5072726;28;20461;-69
2022/12/21 06:28:26;;;;;;;16.73;12.33;;;7.20;99.90;;;;;;5073583;28;20214;-69
2022/12/21 06:30:53;;;;;;;14.30;9.17;;;7.30;99.90;;;;;;5054773;28;21149;-71
2022/12/21 06:33:20;;;;;;;11.80;7.83;;;7.40;99.90;;;;;;5036766;28;20551;-70
2022/12/21 06:35:47;;;;;;;11.03;7.00;;;7.50;99.90;;;;;;5071556;28;20456;-71
2022/12/21 06:38:13;;;;;;;5.73;3.90;;;7.60;99.90;;;;;;5071902;28;20454;-70
2022/12/21 06:40:38;;;;;;;4.97;3.40;;;7.70;99.90;;;;;;5074015;28;20480;-71
2022/12/21 06:43:04;;;;;;;4.47;3.03;;;7.70;99.90;;;;;;5087073;28;20710;-71
2022/12/21 06:45:30;;;;;;;3.93;3.20;;;7.70;99.90;;;;;;5080449;28;20224;-70
2022/12/21 06:47:55;;;;;;;5.23;3.70;;;7.70;99.90;;;;;;5088554;28;20329;-71
2022/12/21 06:50:22;;;;;;;5.57;4.57;;;7.60;99.90;;;;;;5081827;28;20215;-70
2022/12/21 06:52:49;;;;;;;6.40;4.40;;;7.60;99.90;;;;;;5069798;28;20217;-71
2022/12/21 06:55:15;;;;;;;8.20;5.10;;;7.50;99.90;;;;;;5070567;28;20537;-71
2022/12/21 06:57:42;;;;;;;6.03;4.67;;;7.60;99.90;;;;;;5080578;28;20456;-70
2022/12/21 07:00:09;;;;;;;7.33;5.70;;;7.60;99.90;;;;;;5060323;28;20444;-71
2022/12/21 07:02:36;;;;;;;7.57;4.80;;;7.70;99.90;;;;;;5068834;28;20505;-71
2022/12/21 07:05:02;;;;;;;5.10;3.70;;;7.70;99.90;;;;;;5085062;28;20480;-70
2022/12/21 07:07:28;;;;;;;5.53;3.37;;;7.80;99.90;;;;;;5057172;28;20477;-70
2022/12/21 07:09:53;;;;;;;5.13;3.70;;;7.90;99.90;;;;;;5060006;28;20821;-71
2022/12/21 07:12:19;;;;;;;4.97;3.23;;;7.90;99.90;;;;;;5090938;27;20290;-71
2022/12/21 07:14:44;;;;;;;11.17;4.67;;;7.90;99.90;;;;;;5062950;28;20256;-71
2022/12/21 07:17:10;;;;;;;9.63;4.70;;;7.80;99.90;;;;;;5054965;28;20757;-71
2022/12/21 07:19:36;;;;;;;20.20;14.50;;;7.70;99.90;;;;;;5060308;28;20305;-70
2022/12/21 07:22:02;;;;;;;36.30;23.17;;;7.70;99.90;;;;;;5056439;28;20317;-71
2022/12/21 07:24:27;;;;;;;40.80;28.10;;;7.60;99.90;;;;;;5057906;28;20324;-71
2022/12/21 07:26:54;;;;;;;32.20;22.80;;;7.60;99.90;;;;;;5071261;28;20716;-71
2022/12/21 07:29:20;;;;;;;30.77;20.90;;;7.60;99.90;;;;;;5075226;28;20214;-71
2022/12/21 07:31:45;;;;;;;28.83;21.60;;;7.60;99.90;;;;;;5090351;28;20471;-71
2022/12/21 07:34:11;;;;;;;26.87;18.03;;;7.70;99.90;;;;;;5057781;28;20222;-71
2022/12/21 07:36:37;;;;;;;17.37;10.77;;;7.80;99.90;;;;;;5101471;28;20232;-71
2022/12/21 07:39:02;;;;;;;12.87;7.00;;;8.00;99.90;;;;;;5081624;28;20324;-70
2022/12/21 07:41:28;;;;;;;4.60;4.20;;;8.10;99.90;;;;;;5098126;28;20221;-71
2022/12/21 07:43:54;;;;;;;6.20;4.63;;;8.10;99.90;;;;;;5073839;28;20226;-71
2022/12/21 07:46:22;;;;;;;3.77;3.30;;;8.20;99.90;;;;;;5117691;27;20229;-71
2022/12/21 07:48:49;;;;;;;3.87;3.07;;;8.30;99.90;;;;;;5045111;28;20454;-71
2022/12/21 07:51:15;;;;;;;2.00;1.90;;;8.50;99.90;;;;;;5062901;28;20234;-71
2022/12/21 07:53:40;;;;;;;2.93;2.60;;;8.50;99.90;;;;;;5074853;28;20507;-70
2022/12/21 07:56:13;;;;;;;2.30;2.10;;;8.50;99.90;;;;;;5118931;27;20219;-71
2022/12/21 07:58:40;;;;;;;2.33;1.80;;;8.60;99.90;;;;;;5076385;28;20709;-70
2022/12/21 08:01:09;;;;;;;3.00;2.73;;;8.60;99.90;;;;;;5076098;28;20456;-71
2022/12/21 08:03:36;;;;;;;2.93;2.63;;;8.70;99.90;;;;;;5100568;28;20483;-72
2022/12/21 08:06:02;;;;;;;2.37;2.17;;;8.80;99.90;;;;;;5077878;28;20975;-71
2022/12/21 08:08:28;;;;;;;2.73;2.47;;;8.80;99.90;;;;;;5041916;28;20797;-71
2022/12/21 08:10:53;;;;;;;3.10;2.80;;;8.90;99.90;;;;;;5059256;28;20449;-71
2022/12/21 08:13:19;;;;;;;3.80;2.60;;;9.00;99.90;;;;;;5087137;28;20221;-71
2022/12/21 08:15:45;;;;;;;3.40;3.10;;;9.00;99.90;;;;;;5091140;28;20214;-71
2022/12/21 08:18:10;;;;;;;3.47;2.77;;;8.90;99.90;;;;;;5055978;28;20221;-71
2022/12/21 08:20:36;;;;;;;3.20;2.87;;;9.00;99.90;;;;;;5080303;28;20229;-71
2022/12/21 08:23:02;;;;;;;4.70;2.60;;;9.00;99.90;;;;;;5097873;28;20310;-70
2022/12/21 08:25:27;;;;;;;10.83;3.13;;;9.00;99.90;;;;;;5063959;28;20207;-70
2022/12/21 08:27:54;;;;;;;3.30;2.70;;;9.00;99.90;;;;;;5069461;28;20777;-71
2022/12/21 08:30:20;;;;;;;4.10;2.93;;;9.10;99.90;;;;;;5087049;28;20301;-71
2022/12/21 08:32:45;;;;;;;2.50;2.30;;;9.00;99.90;;;;;;5056980;28;20551;-72
2022/12/21 08:35:11;;;;;;;2.60;2.40;;;9.00;99.90;;;;;;5109305;27;20321;-71
2022/12/21 08:37:37;;;;;;;3.50;3.07;;;9.10;99.90;;;;;;5099542;27;20250;-71
2022/12/21 08:40:03;;;;;;;3.20;2.57;;;9.10;99.90;;;;;;5052678;28;20225;-71
2022/12/21 08:42:29;;;;;;;3.77;2.93;;;9.20;99.90;;;;;;5064940;28;20264;-71
2022/12/21 08:44:54;;;;;;;6.23;2.60;;;9.20;99.90;;;;;;5067486;28;20481;-72
2022/12/21 08:47:20;;;;;;;4.97;2.87;;;9.30;99.90;;;;;;5070034;28;20225;-71
2022/12/21 08:49:46;;;;;;;3.27;2.73;;;9.30;99.90;;;;;;5061933;28;20674;-71
2022/12/21 08:52:11;;;;;;;3.03;2.73;;;9.30;99.90;;;;;;5070480;28;20227;-72
2022/12/21 08:54:37;;;;;;;5.80;2.60;;;9.40;99.90;;;;;;5054055;28;20293;-71
2022/12/21 08:57:03;;;;;;;3.43;2.97;;;9.40;99.90;;;;;;5095568;28;20225;-71
2022/12/21 08:59:28;;;;;;;4.03;3.07;;;9.40;99.90;;;;;;5065360;28;20804;-72
2022/12/21 09:01:54;;;;;;;2.83;2.53;;;9.40;99.90;;;;;;5081384;28;20803;-71
2022/12/21 09:04:20;;;;;;;2.97;2.63;;;9.40;99.90;;;;;;5059024;28;20224;-71
2022/12/21 09:06:45;;;;;;;3.00;2.70;;;9.30;99.90;;;;;;5095707;28;20226;-71
2022/12/21 09:09:11;;;;;;;3.13;2.63;;;9.30;99.90;;;;;;5064338;28;20221;-71
2022/12/21 09:11:37;;;;;;;3.67;2.87;;;9.30;99.90;;;;;;5057820;28;20705;-70
2022/12/21 09:14:03;;;;;;;9.80;3.50;;;9.30;99.90;;;;;;5055346;28;20226;-70
2022/12/21 09:16:28;;;;;;;4.60;3.33;;;9.30;99.90;;;;;;5061054;28;20229;-67
2022/12/21 09:18:54;;;;;;;4.50;3.43;;;9.30;99.90;;;;;;5056733;28;20249;-71
2022/12/21 09:21:22;;;;;;;7.90;3.30;;;9.30;99.90;;;;;;5051254;28;20214;-72
2022/12/21 09:23:48;;;;;;;3.10;2.57;;;9.30;99.90;;;;;;5065738;28;20249;-71
2022/12/21 09:26:15;;;;;;;4.00;3.30;;;9.40;99.90;;;;;;5074921;28;20552;-71
2022/12/21 09:28:41;;;;;;;6.27;3.03;;;9.50;99.90;;;;;;5078561;28;20444;-70
2022/12/21 09:31:16;;;;;;;4.33;3.00;;;9.60;99.90;;;;;;5092816;28;20455;-71
2022/12/21 09:33:42;;;;;;;3.83;2.60;;;9.60;99.90;;;;;;5057137;28;20491;-70
2022/12/21 09:36:10;;;;;;;3.63;2.90;;;9.70;99.90;;;;;;5056342;28;20457;-71
2022/12/21 09:38:36;;;;;;;2.50;2.30;;;9.70;99.90;;;;;;5096835;28;20511;-71
2022/12/21 09:41:29;;;;;;;3.13;2.83;;;9.80;99.90;;;;;;5074742;28;20480;-71
2022/12/21 09:44:13;;;;;;;4.03;3.13;;;9.80;99.90;;;;;;5102368;28;20264;-73
2022/12/21 09:46:42;;;;;;;3.60;2.97;;;9.80;99.90;;;;;;5076584;28;20968;-70
2022/12/21 09:49:17;;;;;;;6.50;3.70;;;9.80;99.90;;;;;;5091693;28;20452;-72
2022/12/21 09:51:55;;;;;;;2.83;2.63;;;9.90;99.90;;;;;;5092311;28;20463;-72
2022/12/21 09:54:45;;;;;;;5.07;3.13;;;9.90;99.90;;;;;;5110922;28;20475;-71
2022/12/21 09:57:13;;;;;;;4.67;2.77;;;10.00;99.90;;;;;;5099363;28;20863;-71
2022/12/21 09:59:39;;;;;;;2.90;2.50;;;10.10;99.90;;;;;;5081878;28;20449;-71
2022/12/21 10:02:21;;;;;;;6.23;3.10;;;10.10;99.90;;;;;;5061460;28;21017;-71
2022/12/21 10:05:18;;;;;;;2.87;2.60;;;10.30;99.90;;;;;;5073588;28;20449;-71
2022/12/21 10:08:08;;;;;;;3.17;2.77;;;10.30;99.90;;;;;;5056960;28;20485;-71
2022/12/21 10:10:39;;;;;;;3.83;2.80;;;10.40;99.90;;;;;;5069402;28;20468;-71
2022/12/21 10:13:24;;;;;;;3.27;3.00;;;10.50;99.90;;;;;;5048903;28;20456;-72
2022/12/21 10:16:09;;;;;;;2.97;2.70;;;10.60;99.90;;;;;;5082467;28;20457;-71
2022/12/21 10:18:49;;;;;;;4.17;3.33;;;10.60;99.90;;;;;;5061509;28;20481;-71
2022/12/21 10:21:38;;;;;;;5.33;3.63;;;10.60;99.90;;;;;;5037531;28;20475;-71
2022/12/21 10:24:19;;;;;;;6.47;4.27;;;10.60;99.90;;;;;;5067832;28;20815;-72
2022/12/21 10:26:45;;;;;;;5.80;3.83;;;10.60;99.90;;;;;;5070741;28;20439;-71
2022/12/21 10:29:16;;;;;;;5.50;4.30;;;10.60;99.90;;;;;;5056987;28;20468;-71
2022/12/21 10:31:46;;;;;;;5.60;4.53;;;10.60;99.90;;;;;;5065063;28;20507;-71
2022/12/21 10:34:24;;;;;;;7.53;5.33;;;10.60;99.90;;;;;;5061804;28;20450;-71
2022/12/21 10:36:59;;;;;;;5.47;4.93;;;10.60;99.90;;;;;;5053615;28;20488;-71
2022/12/21 10:39:25;;;;;;;6.30;5.30;;;10.60;99.90;;;;;;5042060;28;20462;-71
2022/12/21 10:42:00;;;;;;;5.83;5.03;;;10.60;99.90;;;;;;5048769;28;20544;-71
2022/12/21 10:44:26;;;;;;;5.63;5.13;;;10.70;99.90;;;;;;5047773;28;20472;-71
2022/12/21 10:46:52;;;;;;;5.70;4.53;;;10.70;99.90;;;;;;5055986;28;20476;-71
2022/12/21 10:49:26;;;;;;;5.30;3.97;;;10.60;99.90;;;;;;5053094;28;20207;-72
2022/12/21 10:51:52;;;;;;;4.40;4.07;;;10.60;99.90;;;;;;5062656;28;20226;-71
2022/12/21 10:54:28;;;;;;;4.00;3.60;;;10.70;99.90;;;;;;5035635;28;20466;-72
2022/12/21 10:56:58;;;;;;;4.10;3.70;;;10.70;99.90;;;;;;5051526;28;20300;-71
2022/12/21 10:59:29;;;;;;;6.10;4.00;;;10.70;99.90;;;;;;5044081;28;20465;-71
2022/12/21 11:01:55;;;;;;;4.33;3.93;;;10.70;99.90;;;;;;5059827;28;20556;-72
2022/12/21 11:04:26;;;;;;;5.00;4.10;;;10.70;99.90;;;;;;5088437;28;20454;-71
2022/12/21 11:06:57;;;;;;;5.30;4.07;;;10.70;99.90;;;;;;5075311;28;20477;-71
2022/12/21 11:09:40;;;;;;;5.63;3.87;;;10.60;99.90;;;;;;5033244;28;20489;-72
2022/12/21 11:12:12;;;;;;;5.50;4.10;;;10.70;99.90;;;;;;5077545;28;20451;-71
2022/12/21 11:14:38;;;;;;;5.00;4.30;;;10.80;99.90;;;;;;5071287;28;20440;-72
2022/12/21 11:17:04;;;;;;;8.20;5.23;;;10.80;99.90;;;;;;5067805;28;20444;-71
2022/12/21 11:19:34;;;;;;;6.57;4.73;;;10.80;99.90;;;;;;5056083;28;20301;-71
2022/12/21 11:22:00;;;;;;;5.73;4.30;;;10.80;99.90;;;;;;5079397;28;20953;-71
2022/12/21 11:24:34;;;;;;;8.93;5.60;;;10.80;99.90;;;;;;5043200;28;20472;-72
2022/12/21 11:27:22;;;;;;;8.23;5.40;;;10.80;99.90;;;;;;5073025;28;20987;-71
2022/12/21 11:29:51;;;;;;;7.13;5.57;;;10.80;99.90;;;;;;5061009;28;20460;-73
2022/12/21 11:32:18;;;;;;;5.67;4.97;;;10.80;99.90;;;;;;5090464;28;20460;-72
2022/12/21 11:34:55;;;;;;;7.77;6.30;;;10.80;99.90;;;;;;5072286;28;20528;-71
2022/12/21 11:37:38;;;;;;;8.57;6.27;;;10.80;99.90;;;;;;5078755;28;20991;-71
2022/12/21 11:40:22;;;;;;;11.33;7.97;;;10.80;99.90;;;;;;5015771;28;20461;-71
2022/12/21 11:43:00;;;;;;;11.20;6.70;;;10.80;99.90;;;;;;5055709;28;20463;-72
2022/12/21 11:45:47;;;;;;;10.80;6.53;;;10.90;99.90;;;;;;5052135;28;20547;-72
2022/12/21 11:48:40;;;;;;;14.57;7.80;;;10.90;99.90;;;;;;5053892;28;20457;-72
2022/12/21 11:51:33;;;;;;;10.83;6.70;;;11.00;99.90;;;;;;5040853;28;21035;-72
2022/12/21 11:54:22;;;;;;;8.70;5.20;;;11.10;99.90;;;;;;5064252;28;20544;-72
2022/12/21 11:57:21;;;;;;;8.70;5.70;;;11.30;99.90;;;;;;5063989;28;20997;-72
2022/12/21 12:00:07;;;;;;;6.17;4.53;;;11.50;99.90;;;;;;5059160;28;20452;-72
2022/12/21 12:03:06;;;;;;;5.63;4.60;;;11.60;99.90;;;;;;5086388;28;20444;-68
2022/12/21 12:05:41;;;;;;;3.20;2.90;;;11.70;99.90;;;;;;5072290;28;20453;-72
2022/12/21 12:08:24;;;;;;;3.03;2.67;;;11.90;99.90;;;;;;5084263;28;20447;-72
2022/12/21 12:11:25;;;;;;;2.60;2.40;;;11.80;99.90;;;;;;5060431;28;20909;-72
2022/12/21 12:14:25;;;;;;;3.10;2.63;;;12.10;99.90;;;;;;5042673;28;20471;-72
2022/12/21 12:17:31;;;;;;;5.63;2.23;;;12.20;99.90;;;;;;5055741;28;21024;-72
2022/12/21 12:20:38;;;;;;;2.77;2.00;;;12.20;99.90;;;;;;5065452;28;20761;-71
2022/12/21 12:23:16;;;;;;;3.57;1.70;;;12.00;99.90;;;;;;5049921;28;20456;-72
2022/12/21 12:25:55;;;;;;;1.53;1.43;;;12.00;99.90;;;;;;5060928;28;20443;-72
2022/12/21 12:28:49;;;;;;;1.50;1.40;;;12.00;99.90;;;;;;5078562;28;20453;-72
2022/12/21 12:32:05;;;;;;;1.77;1.30;;;11.70;99.90;;;;;;5075713;28;20460;-72
2022/12/21 12:34:51;;;;;;;1.27;1.17;;;11.60;99.90;;;;;;5062506;28;20940;-71
2022/12/21 12:37:29;;;;;;;2.30;1.30;;;11.50;99.90;;;;;;5091410;28;20450;-71
2022/12/21 12:40:10;;;;;;;2.37;1.10;;;11.50;99.90;;;;;;5045268;28;20449;-71
2022/12/21 12:42:54;;;;;;;1.17;1.07;;;11.60;99.90;;;;;;5067226;28;20849;-72
2022/12/21 12:45:42;;;;;;;1.70;1.60;;;11.50;99.90;;;;;;5048932;28;20498;-72
2022/12/21 12:48:20;;;;;;;2.13;1.03;;;11.50;99.90;;;;;;5059527;28;20457;-71
2022/12/21 12:51:14;;;;;;;1.23;1.13;;;11.40;99.90;;;;;;5058555;28;20463;-72
2022/12/21 12:53:58;;;;;;;1.17;1.07;;;11.40;99.90;;;;;;5076227;28;20453;-71
2022/12/21 12:56:30;;;;;;;1.90;1.20;;;11.40;99.90;;;;;;5049730;28;20452;-72
2022/12/21 12:59:14;;;;;;;1.80;1.70;;;11.40;99.90;;;;;;5062573;28;20457;-72
2022/12/21 13:01:52;;;;;;;1.40;1.30;;;11.40;99.90;;;;;;5039782;28;20452;-71
2022/12/21 13:04:48;;;;;;;1.10;1.10;;;11.40;99.90;;;;;;5057233;28;20543;-72
2022/12/21 13:07:25;;;;;;;1.53;1.33;;;11.30;99.90;;;;;;5071333;28;20467;-72
2022/12/21 13:10:09;;;;;;;2.83;1.50;;;11.40;99.90;;;;;;5047976;28;21041;-72
2022/12/21 13:12:43;;;;;;;1.40;1.30;;;11.40;99.90;;;;;;5043493;28;20480;-74
2022/12/21 13:15:36;;;;;;;1.50;1.40;;;11.40;99.90;;;;;;5069330;28;20453;-72
2022/12/21 13:18:21;;;;;;;1.73;1.57;;;11.40;99.90;;;;;;5054405;28;20529;-72
2022/12/21 13:20:49;;;;;;;2.13;1.70;;;11.40;99.90;;;;;;5048804;28;20509;-72
2022/12/21 13:23:56;;;;;;;1.50;1.37;;;11.40;99.90;;;;;;5079671;28;20452;-72